Time;durP1;ratioP1;P1;durP2;ratioP2;P2;SDS_P1;SDS_P2;PMS_P1;PMS_P2;Temp;Humidity;BMP_temperature;BMP_pressure;BME280_temperature;BME280_humidity;BME280_pressure;Samples;Min_cycle;Max_cycle;Signal;HPM_P1;HPM_P2
2022/12/08 00:00:14;;;;;;;0.65;0.35;;;;;;;;;;4133382;28;20053;-43
2022/12/08 00:02:15;;;;;;;0.85;0.30;;;;;;;;;;4140482;28;20050;-44
2022/12/08 00:04:16;;;;;;;0.45;0.30;;;;;;;;;;4139070;28;20387;-43
2022/12/08 00:11:18;;;;;;;0.73;0.60;;;;;;;;;;4146183;28;20053;-43
2022/12/08 00:13:20;;;;;;;0.70;0.30;;;;;;;;;;4161198;28;20505;-43
2022/12/08 00:15:21;;;;;;;1.00;0.32;;;;;;;;;;4148495;28;20058;-45
2022/12/08 00:17:22;;;;;;;0.90;0.43;;;;;;;;;;4140747;28;20413;-44
2022/12/08 00:19:25;;;;;;;0.50;0.35;;;;;;;;;;4149281;28;20054;-43
2022/12/08 00:21:27;;;;;;;1.05;0.43;;;;;;;;;;4149173;28;20104;-43
2022/12/08 00:23:29;;;;;;;0.60;0.40;;;;;;;;;;4144008;28;20058;-46
2022/12/08 00:25:30;;;;;;;0.63;0.30;;;;;;;;;;4141731;28;20481;-43
2022/12/08 00:27:32;;;;;;;0.43;0.30;;;;;;;;;;4153019;28;20553;-43
2022/12/08 00:29:33;;;;;;;0.57;0.40;;;;;;;;;;4146348;28;20436;-43
2022/12/08 00:31:35;;;;;;;0.60;0.40;;;;;;;;;;4137286;28;20077;-43
2022/12/08 00:33:36;;;;;;;0.77;0.30;;;;;;;;;;4149174;28;20065;-43
2022/12/08 00:35:37;;;;;;;0.82;0.40;;;;;;;;;;4131934;28;20081;-43
2022/12/08 00:37:39;;;;;;;0.90;0.40;;;;;;;;;;4132928;28;20100;-43
2022/12/08 00:39:40;;;;;;;0.30;0.30;;;;;;;;;;4149705;28;20263;-45
2022/12/08 00:44:01;;;;;;;;;;;;;;;;;;4149741;28;20057;-45
2022/12/08 00:46:03;;;;;;;0.90;0.40;;;;;;;;;;4135752;28;19926;-45
2022/12/08 00:48:05;;;;;;;1.85;0.43;;;;;;;;;;4131733;28;20077;-44
2022/12/08 00:50:07;;;;;;;0.68;0.40;;;;;;;;;;4141353;28;20117;-43
2022/12/08 00:52:08;;;;;;;1.17;0.50;;;;;;;;;;4144040;28;20076;-45
2022/12/08 00:54:10;;;;;;;1.15;0.40;;;;;;;;;;4135113;28;20055;-43
2022/12/08 00:56:11;;;;;;;0.50;0.30;;;;;;;;;;4148958;28;20058;-44
2022/12/08 00:58:13;;;;;;;0.73;0.45;;;;;;;;;;4130235;28;20050;-43
2022/12/08 01:00:14;;;;;;;0.35;0.35;;;;;;;;;;4149241;28;20092;-43
2022/12/08 01:02:15;;;;;;;0.30;0.30;;;;;;;;;;4148571;28;20100;-43
2022/12/08 01:04:18;;;;;;;0.50;0.40;;;;;;;;;;4147629;28;20058;-43
2022/12/08 01:06:19;;;;;;;0.43;0.30;;;;;;;;;;4149110;28;20057;-43
2022/12/08 01:08:21;;;;;;;0.80;0.50;;;;;;;;;;4131437;28;20046;-43
2022/12/08 01:10:22;;;;;;;0.70;0.40;;;;;;;;;;4148733;28;20116;-43
2022/12/08 01:12:24;;;;;;;0.50;0.40;;;;;;;;;;4135478;28;20066;-44
2022/12/08 01:14:25;;;;;;;0.40;0.40;;;;;;;;;;4143833;28;20097;-43
2022/12/08 01:16:28;;;;;;;0.82;0.30;;;;;;;;;;4141255;28;20058;-44
2022/12/08 01:18:30;;;;;;;0.95;0.50;;;;;;;;;;4136810;28;20116;-45
2022/12/08 01:20:31;;;;;;;1.20;0.35;;;;;;;;;;4147189;28;20437;-43
2022/12/08 01:22:34;;;;;;;1.63;0.50;;;;;;;;;;4143502;28;20398;-44
2022/12/08 01:24:36;;;;;;;0.35;0.30;;;;;;;;;;4123715;28;20097;-43
2022/12/08 01:26:37;;;;;;;1.02;0.50;;;;;;;;;;4130994;28;20498;-43
2022/12/08 01:28:38;;;;;;;0.90;0.50;;;;;;;;;;4148362;28;20125;-43
2022/12/08 01:30:40;;;;;;;0.80;0.50;;;;;;;;;;4144686;28;20501;-43
2022/12/08 01:32:41;;;;;;;0.32;0.30;;;;;;;;;;4132232;28;20532;-44
2022/12/08 01:34:43;;;;;;;0.63;0.28;;;;;;;;;;4132532;28;20193;-43
2022/12/08 01:36:44;;;;;;;0.50;0.30;;;;;;;;;;4145610;28;20558;-44
2022/12/08 01:38:46;;;;;;;0.60;0.32;;;;;;;;;;4135136;28;20053;-44
2022/12/08 01:40:47;;;;;;;1.15;0.40;;;;;;;;;;4131137;28;20106;-44
2022/12/08 01:42:49;;;;;;;0.82;0.43;;;;;;;;;;4147081;28;20513;-45
2022/12/08 01:45:02;;;;;;;0.90;0.47;;;;;;;;;;4136155;28;20059;-44
2022/12/08 01:47:04;;;;;;;0.57;0.38;;;;;;;;;;4150782;28;20053;-45
2022/12/08 01:49:24;;;;;;;0.68;0.40;;;;;;;;;;4141462;28;20062;-44
2022/12/08 01:51:25;;;;;;;0.90;0.40;;;;;;;;;;4138940;28;20112;-43
2022/12/08 01:53:31;;;;;;;0.50;0.30;;;;;;;;;;4145402;28;20069;-44
2022/12/08 01:55:37;;;;;;;0.63;0.38;;;;;;;;;;4138161;28;20054;-42
2022/12/08 01:57:46;;;;;;;0.50;0.30;;;;;;;;;;4148270;28;20112;-47
2022/12/08 01:59:53;;;;;;;1.13;0.50;;;;;;;;;;4147507;28;20516;-42
2022/12/08 02:01:55;;;;;;;0.75;0.50;;;;;;;;;;4114586;28;20043;-43
2022/12/08 02:03:59;;;;;;;0.70;0.30;;;;;;;;;;4154392;28;20049;-43
2022/12/08 02:06:01;;;;;;;0.95;0.40;;;;;;;;;;4148103;28;20119;-44
2022/12/08 02:08:06;;;;;;;0.30;0.22;;;;;;;;;;4147276;28;20054;-45
2022/12/08 02:10:10;;;;;;;1.05;0.50;;;;;;;;;;4142523;28;20549;-43
2022/12/08 02:12:11;;;;;;;1.10;0.30;;;;;;;;;;4121903;28;20065;-44
2022/12/08 02:14:13;;;;;;;0.93;0.57;;;;;;;;;;4103614;28;20103;-42
2022/12/08 02:16:34;;;;;;;0.63;0.45;;;;;;;;;;4111843;28;20502;-44
2022/12/08 02:18:52;;;;;;;0.82;0.40;;;;;;;;;;4130381;28;20054;-45
2022/12/08 02:20:59;;;;;;;0.77;0.40;;;;;;;;;;4142152;28;20141;-43
2022/12/08 02:23:36;;;;;;;0.40;0.30;;;;;;;;;;4117734;28;20319;-43
2022/12/08 02:26:14;;;;;;;0.35;0.28;;;;;;;;;;4114553;28;20078;-43
2022/12/08 02:28:46;;;;;;;0.63;0.40;;;;;;;;;;4115521;28;20058;-43
2022/12/08 02:31:18;;;;;;;0.43;0.32;;;;;;;;;;4142278;28;20054;-43
2022/12/08 02:33:58;;;;;;;0.70;0.50;;;;;;;;;;4142045;28;20050;-43
2022/12/08 02:36:06;;;;;;;0.30;0.30;;;;;;;;;;4105069;28;20090;-43
2022/12/08 02:38:20;;;;;;;0.65;0.30;;;;;;;;;;4145186;28;20104;-44
2022/12/08 02:40:30;;;;;;;0.65;0.35;;;;;;;;;;4118192;28;20054;-43
2022/12/08 02:42:39;;;;;;;0.63;0.52;;;;;;;;;;4130745;28;20058;-43
2022/12/08 02:44:47;;;;;;;0.50;0.30;;;;;;;;;;4113986;28;20061;-42
2022/12/08 02:46:54;;;;;;;1.92;0.35;;;;;;;;;;4145896;28;20097;-44
2022/12/08 02:48:56;;;;;;;0.65;0.40;;;;;;;;;;4130971;28;20061;-44
2022/12/08 02:50:58;;;;;;;0.77;0.40;;;;;;;;;;4128184;28;20435;-43
2022/12/08 02:53:00;;;;;;;0.52;0.32;;;;;;;;;;4125804;28;20050;-44
2022/12/08 02:55:05;;;;;;;0.32;0.32;;;;;;;;;;4145785;28;20053;-45
2022/12/08 02:57:13;;;;;;;0.82;0.30;;;;;;;;;;4113819;28;20059;-44
2022/12/08 02:59:26;;;;;;;0.55;0.43;;;;;;;;;;4130867;28;20458;-43
2022/12/08 03:01:33;;;;;;;0.88;0.40;;;;;;;;;;4130702;28;20054;-44
2022/12/08 03:04:02;;;;;;;0.30;0.30;;;;;;;;;;4130722;28;20081;-44
2022/12/08 03:06:24;;;;;;;0.70;0.40;;;;;;;;;;4089946;28;20059;-44
2022/12/08 03:08:43;;;;;;;0.75;0.30;;;;;;;;;;4110088;28;20054;-46
2022/12/08 03:10:55;;;;;;;0.95;0.30;;;;;;;;;;4116914;28;20466;-46
2022/12/08 03:13:02;;;;;;;0.57;0.40;;;;;;;;;;4162200;28;20589;-45
2022/12/08 03:15:09;;;;;;;0.75;0.40;;;;;;;;;;4130750;28;20456;-44
2022/12/08 03:17:12;;;;;;;1.33;0.50;;;;;;;;;;4128669;28;20141;-43
2022/12/08 03:19:20;;;;;;;0.13;0.13;;;;;;;;;;4124452;28;20058;-44
2022/12/08 03:21:21;;;;;;;0.70;0.40;;;;;;;;;;4160007;28;20058;-46
2022/12/08 03:23:23;;;;;;;0.75;0.40;;;;;;;;;;4130247;28;20057;-43
2022/12/08 03:25:26;;;;;;;0.50;0.30;;;;;;;;;;4161743;28;20049;-45
2022/12/08 03:27:28;;;;;;;0.80;0.40;;;;;;;;;;4130430;28;20054;-43
2022/12/08 03:29:31;;;;;;;0.68;0.30;;;;;;;;;;4129338;28;20087;-43
2022/12/08 03:31:36;;;;;;;0.52;0.40;;;;;;;;;;4130754;28;20120;-46
2022/12/08 03:33:40;;;;;;;0.30;0.30;;;;;;;;;;4142197;28;20520;-45
2022/12/08 03:35:41;;;;;;;1.13;0.38;;;;;;;;;;4151483;28;20563;-44
2022/12/08 03:37:43;;;;;;;0.20;0.20;;;;;;;;;;4160800;28;20115;-44
2022/12/08 03:39:44;;;;;;;0.50;0.50;;;;;;;;;;4128982;28;20059;-44
2022/12/08 03:41:46;;;;;;;0.40;0.30;;;;;;;;;;4117079;28;20097;-44
2022/12/08 03:43:52;;;;;;;0.90;0.40;;;;;;;;;;4130462;28;20548;-46
2022/12/08 03:45:53;;;;;;;0.40;0.25;;;;;;;;;;4129196;28;20403;-43
2022/12/08 03:47:55;;;;;;;0.40;0.20;;;;;;;;;;4130677;28;20105;-43
2022/12/08 03:49:56;;;;;;;0.20;0.20;;;;;;;;;;4128916;28;20062;-45
2022/12/08 03:51:57;;;;;;;0.65;0.55;;;;;;;;;;4125934;28;20070;-43
2022/12/08 03:53:59;;;;;;;0.40;0.40;;;;;;;;;;4121650;28;20065;-44
2022/12/08 03:56:06;;;;;;;2.00;0.40;;;;;;;;;;4130329;28;20058;-43
2022/12/08 03:58:07;;;;;;;0.52;0.38;;;;;;;;;;4129870;28;20054;-45
2022/12/08 04:00:13;;;;;;;0.60;0.32;;;;;;;;;;4126069;28;20102;-43
2022/12/08 04:02:14;;;;;;;0.28;0.20;;;;;;;;;;4130824;28;20579;-44
2022/12/08 04:04:15;;;;;;;0.50;0.30;;;;;;;;;;4146374;28;20054;-44
2022/12/08 04:06:18;;;;;;;0.55;0.38;;;;;;;;;;4132840;28;20557;-43
2022/12/08 04:08:19;;;;;;;0.63;0.22;;;;;;;;;;4128929;28;20054;-45
2022/12/08 04:10:20;;;;;;;0.98;0.30;;;;;;;;;;4145681;28;20054;-43
2022/12/08 04:12:22;;;;;;;0.47;0.28;;;;;;;;;;4146609;28;20386;-43
2022/12/08 04:14:23;;;;;;;0.20;0.20;;;;;;;;;;4116188;28;20054;-43
2022/12/08 04:16:26;;;;;;;0.50;0.30;;;;;;;;;;4133191;28;20062;-44
2022/12/08 04:18:27;;;;;;;0.40;0.30;;;;;;;;;;4155243;28;20116;-47
2022/12/08 04:20:28;;;;;;;0.40;0.40;;;;;;;;;;4139642;28;20080;-44
2022/12/08 04:22:30;;;;;;;0.60;0.40;;;;;;;;;;4145900;28;20076;-44
2022/12/08 04:24:31;;;;;;;0.60;0.30;;;;;;;;;;4132910;28;20513;-44
2022/12/08 04:26:33;;;;;;;0.82;0.40;;;;;;;;;;4146246;28;20054;-43
2022/12/08 04:28:34;;;;;;;0.47;0.40;;;;;;;;;;4146205;28;20107;-43
2022/12/08 04:30:36;;;;;;;0.25;0.25;;;;;;;;;;4146337;28;20557;-43
2022/12/08 04:32:37;;;;;;;0.40;0.30;;;;;;;;;;4145790;28;20108;-43
2022/12/08 04:34:39;;;;;;;0.82;0.50;;;;;;;;;;4146502;28;20058;-47
2022/12/08 04:36:40;;;;;;;0.63;0.30;;;;;;;;;;4138847;28;20486;-44
2022/12/08 04:38:41;;;;;;;0.57;0.30;;;;;;;;;;4140254;28;20065;-44
2022/12/08 04:40:43;;;;;;;0.40;0.30;;;;;;;;;;4132653;28;20054;-44
2022/12/08 04:42:45;;;;;;;0.30;0.30;;;;;;;;;;4146200;28;20053;-43
2022/12/08 04:44:46;;;;;;;0.45;0.30;;;;;;;;;;4139627;28;20069;-43
2022/12/08 04:46:48;;;;;;;0.55;0.35;;;;;;;;;;4139714;28;20054;-43
2022/12/08 04:48:49;;;;;;;0.68;0.40;;;;;;;;;;4146088;28;20497;-43
2022/12/08 04:50:50;;;;;;;0.68;0.35;;;;;;;;;;4143238;28;20507;-45
2022/12/08 04:52:52;;;;;;;0.40;0.40;;;;;;;;;;4135232;28;20054;-45
2022/12/08 04:54:53;;;;;;;0.47;0.30;;;;;;;;;;4137443;28;20054;-46
2022/12/08 04:56:54;;;;;;;0.13;0.13;;;;;;;;;;4141866;28;20058;-45
2022/12/08 04:58:55;;;;;;;0.57;0.35;;;;;;;;;;4132731;28;20054;-45
2022/12/08 05:00:57;;;;;;;0.28;0.22;;;;;;;;;;4147078;28;20064;-45
2022/12/08 05:02:58;;;;;;;0.52;0.40;;;;;;;;;;4148933;28;20399;-44
2022/12/08 05:04:59;;;;;;;0.47;0.40;;;;;;;;;;4149028;28;20072;-43
2022/12/08 05:07:00;;;;;;;0.70;0.50;;;;;;;;;;4135417;28;20081;-45
2022/12/08 05:09:01;;;;;;;0.80;0.30;;;;;;;;;;4148788;28;20049;-43
2022/12/08 05:11:04;;;;;;;0.65;0.30;;;;;;;;;;4142183;28;20576;-45
2022/12/08 05:13:07;;;;;;;0.82;0.50;;;;;;;;;;4157494;28;20123;-43
2022/12/08 05:15:08;;;;;;;0.52;0.30;;;;;;;;;;4148952;28;20613;-43
2022/12/08 05:17:09;;;;;;;0.30;0.30;;;;;;;;;;4148805;28;20053;-43
2022/12/08 05:19:12;;;;;;;0.77;0.40;;;;;;;;;;4148897;28;20108;-46
2022/12/08 05:21:13;;;;;;;1.25;0.40;;;;;;;;;;4115216;28;20054;-46
2022/12/08 05:23:14;;;;;;;0.47;0.30;;;;;;;;;;4132181;28;20054;-43
2022/12/08 05:25:16;;;;;;;0.30;0.30;;;;;;;;;;4147515;28;20339;-43
2022/12/08 05:27:17;;;;;;;0.43;0.40;;;;;;;;;;4143645;28;20058;-43
2022/12/08 05:29:18;;;;;;;0.40;0.30;;;;;;;;;;4131478;28;20077;-45
2022/12/08 05:31:19;;;;;;;0.28;0.20;;;;;;;;;;4143573;28;20046;-44
2022/12/08 05:33:20;;;;;;;0.47;0.30;;;;;;;;;;4148234;28;20108;-43
2022/12/08 05:35:22;;;;;;;0.30;0.30;;;;;;;;;;4148752;28;20087;-44
2022/12/08 05:37:23;;;;;;;0.50;0.40;;;;;;;;;;4148233;28;20054;-42
2022/12/08 05:39:25;;;;;;;0.50;0.38;;;;;;;;;;4147938;28;20046;-43
2022/12/08 05:41:26;;;;;;;0.77;0.40;;;;;;;;;;4123482;28;20104;-43
2022/12/08 05:43:27;;;;;;;0.57;0.50;;;;;;;;;;4148319;28;20061;-43
2022/12/08 05:45:29;;;;;;;0.40;0.32;;;;;;;;;;4131166;28;20058;-45
2022/12/08 05:47:30;;;;;;;0.32;0.25;;;;;;;;;;4148526;28;20054;-46
2022/12/08 05:49:31;;;;;;;0.70;0.30;;;;;;;;;;4148369;28;20061;-44
2022/12/08 05:51:32;;;;;;;1.63;0.30;;;;;;;;;;4147738;28;20373;-43
2022/12/08 05:53:34;;;;;;;1.73;0.30;;;;;;;;;;4147675;28;20058;-43
2022/12/08 05:55:35;;;;;;;0.50;0.30;;;;;;;;;;4148291;28;20058;-47
2022/12/08 05:57:36;;;;;;;0.80;0.40;;;;;;;;;;4147888;28;20063;-43
2022/12/08 05:59:38;;;;;;;1.55;0.30;;;;;;;;;;4147501;28;20054;-43
2022/12/08 06:01:39;;;;;;;0.75;0.30;;;;;;;;;;4144038;28;20100;-42
2022/12/08 06:03:41;;;;;;;0.60;0.30;;;;;;;;;;4146228;28;20058;-43
2022/12/08 06:05:43;;;;;;;1.95;0.60;;;;;;;;;;4145985;28;20116;-43
2022/12/08 06:07:45;;;;;;;0.65;0.40;;;;;;;;;;4145425;28;20053;-44
2022/12/08 06:09:46;;;;;;;0.60;0.32;;;;;;;;;;4142351;28;20125;-43
2022/12/08 06:11:48;;;;;;;1.63;0.40;;;;;;;;;;4140966;28;20061;-43
2022/12/08 06:13:49;;;;;;;0.88;0.50;;;;;;;;;;4145290;28;20049;-45
2022/12/08 06:15:51;;;;;;;0.60;0.28;;;;;;;;;;4112517;28;20058;-44
2022/12/08 06:17:52;;;;;;;0.88;0.30;;;;;;;;;;4137053;28;20068;-43
2022/12/08 06:19:53;;;;;;;1.20;0.55;;;;;;;;;;4128748;28;20145;-43
2022/12/08 06:21:54;;;;;;;0.40;0.32;;;;;;;;;;4145658;28;20104;-43
2022/12/08 06:23:56;;;;;;;1.00;0.20;;;;;;;;;;4145436;28;20107;-46
2022/12/08 06:26:01;;;;;;;0.30;0.22;;;;;;;;;;4145165;28;20112;-43
2022/12/08 06:28:05;;;;;;;0.70;0.30;;;;;;;;;;4145782;28;20107;-43
2022/12/08 06:30:06;;;;;;;0.38;0.30;;;;;;;;;;4144030;28;20060;-47
2022/12/08 06:32:07;;;;;;;1.70;0.45;;;;;;;;;;4141058;28;20104;-45
2022/12/08 06:34:09;;;;;;;1.27;0.40;;;;;;;;;;4136727;28;20069;-45
2022/12/08 06:36:12;;;;;;;2.25;0.47;;;;;;;;;;4145560;28;20054;-43
2022/12/08 06:38:13;;;;;;;1.17;0.57;;;;;;;;;;4145055;28;20057;-44
2022/12/08 06:40:15;;;;;;;5.38;0.45;;;;;;;;;;4145464;28;20054;-43
2022/12/08 06:44:36;;;;;;;2.58;0.50;;;;;;;;;;4137243;28;20054;-43
2022/12/08 06:46:38;;;;;;;1.85;0.55;;;;;;;;;;4133078;28;20061;-43
2022/12/08 06:48:40;;;;;;;1.75;0.50;;;;;;;;;;4126165;28;20493;-43
2022/12/08 06:50:42;;;;;;;2.22;0.40;;;;;;;;;;4130785;28;20501;-44
2022/12/08 06:52:44;;;;;;;1.95;0.57;;;;;;;;;;4134371;28;20054;-42
2022/12/08 06:54:46;;;;;;;1.55;0.73;;;;;;;;;;4138032;28;20584;-42
2022/12/08 06:56:48;;;;;;;2.25;0.82;;;;;;;;;;4136272;28;20057;-45
2022/12/08 06:58:49;;;;;;;2.53;0.80;;;;;;;;;;4121574;28;20105;-44
2022/12/08 07:00:50;;;;;;;1.23;0.50;;;;;;;;;;4136267;28;20058;-45
2022/12/08 07:02:52;;;;;;;2.28;0.80;;;;;;;;;;4131479;28;20061;-43
2022/12/08 07:04:53;;;;;;;1.85;0.50;;;;;;;;;;4140401;28;20112;-44
2022/12/08 07:06:55;;;;;;;1.30;0.60;;;;;;;;;;4139996;28;20404;-46
2022/12/08 07:08:56;;;;;;;2.28;0.75;;;;;;;;;;4136198;28;20104;-47
2022/12/08 07:10:57;;;;;;;1.15;0.70;;;;;;;;;;4137997;28;20077;-42
2022/12/08 07:12:58;;;;;;;2.22;0.82;;;;;;;;;;4130529;28;20050;-43
2022/12/08 07:14:59;;;;;;;1.48;0.73;;;;;;;;;;4134101;28;20112;-44
2022/12/08 07:17:01;;;;;;;1.02;0.30;;;;;;;;;;4131304;28;20432;-43
2022/12/08 07:19:02;;;;;;;2.25;0.50;;;;;;;;;;4143290;28;20549;-43
2022/12/08 07:21:14;;;;;;;1.55;0.68;;;;;;;;;;4104419;28;20477;-45
2022/12/08 07:23:15;;;;;;;2.22;0.80;;;;;;;;;;4116347;28;20058;-42
2022/12/08 07:25:16;;;;;;;2.60;0.90;;;;;;;;;;4125646;28;20470;-42
2022/12/08 07:27:17;;;;;;;1.50;0.60;;;;;;;;;;4126388;28;20061;-45
2022/12/08 07:29:19;;;;;;;1.15;0.47;;;;;;;;;;4130321;28;20058;-44
2022/12/08 07:31:22;;;;;;;1.77;0.50;;;;;;;;;;4114126;28;20106;-43
2022/12/08 07:33:24;;;;;;;2.15;0.40;;;;;;;;;;4128473;28;20438;-43
2022/12/08 07:35:26;;;;;;;2.05;0.68;;;;;;;;;;4128831;28;20121;-43
2022/12/08 07:37:27;;;;;;;3.22;0.57;;;;;;;;;;4131167;28;20058;-43
2022/12/08 07:39:29;;;;;;;1.33;0.60;;;;;;;;;;4130544;28;20053;-43
2022/12/08 07:41:30;;;;;;;2.88;0.70;;;;;;;;;;4126410;28;20058;-44
2022/12/08 07:43:31;;;;;;;3.63;0.88;;;;;;;;;;4125663;28;20065;-44
2022/12/08 07:45:33;;;;;;;2.58;0.88;;;;;;;;;;4124814;28;20058;-43
2022/12/08 07:47:34;;;;;;;3.83;0.90;;;;;;;;;;4116290;28;20065;-42
2022/12/08 07:49:35;;;;;;;1.75;0.77;;;;;;;;;;4112168;28;20069;-45
2022/12/08 07:51:37;;;;;;;1.80;0.90;;;;;;;;;;4115942;28;20396;-42
2022/12/08 07:53:40;;;;;;;1.58;0.52;;;;;;;;;;4116899;28;20155;-42
2022/12/08 07:55:42;;;;;;;1.10;0.50;;;;;;;;;;4120251;28;20057;-44
2022/12/08 07:57:43;;;;;;;1.80;0.60;;;;;;;;;;4119532;28;20531;-41
2022/12/08 07:59:44;;;;;;;1.40;0.60;;;;;;;;;;4115680;28;20064;-43
2022/12/08 08:01:47;;;;;;;2.60;0.57;;;;;;;;;;4119064;28;20054;-41
2022/12/08 08:03:48;;;;;;;3.08;0.70;;;;;;;;;;4125106;28;20062;-41
2022/12/08 08:05:49;;;;;;;1.95;0.60;;;;;;;;;;4120299;28;20144;-41
2022/12/08 08:07:50;;;;;;;2.25;0.55;;;;;;;;;;4117978;28;20636;-42
2022/12/08 08:09:52;;;;;;;1.38;0.52;;;;;;;;;;4121734;28;20050;-41
2022/12/08 08:11:53;;;;;;;2.05;0.77;;;;;;;;;;4111811;28;20190;-41
2022/12/08 08:13:55;;;;;;;3.22;0.70;;;;;;;;;;4097881;28;20258;-44
2022/12/08 08:16:05;;;;;;;2.50;0.50;;;;;;;;;;4131753;28;20160;-40
2022/12/08 08:18:07;;;;;;;3.33;0.77;;;;;;;;;;4125827;28;20460;-44
2022/12/08 08:20:10;;;;;;;3.47;1.05;;;;;;;;;;4121027;28;20058;-46
2022/12/08 08:22:11;;;;;;;1.70;0.80;;;;;;;;;;4113945;28;20062;-44
2022/12/08 08:24:12;;;;;;;1.33;0.43;;;;;;;;;;4110880;28;20055;-45
2022/12/08 08:26:14;;;;;;;1.10;0.70;;;;;;;;;;4115759;28;21030;-43
2022/12/08 08:28:15;;;;;;;1.85;0.70;;;;;;;;;;4102542;28;20433;-44
2022/12/08 08:30:17;;;;;;;1.02;0.60;;;;;;;;;;4105422;28;20172;-43
2022/12/08 08:32:18;;;;;;;1.27;0.57;;;;;;;;;;4122216;28;20398;-43
2022/12/08 08:34:20;;;;;;;5.90;0.70;;;;;;;;;;4101826;28;20054;-44
2022/12/08 08:36:21;;;;;;;1.50;0.50;;;;;;;;;;4118436;28;20145;-43
2022/12/08 08:38:24;;;;;;;2.90;0.88;;;;;;;;;;4120007;28;20857;-42
2022/12/08 08:40:26;;;;;;;0.93;0.60;;;;;;;;;;4112963;28;20502;-43
2022/12/08 08:42:27;;;;;;;3.10;0.80;;;;;;;;;;4113803;28;20065;-40
2022/12/08 08:44:28;;;;;;;4.35;0.80;;;;;;;;;;4112918;28;20061;-41
2022/12/08 08:46:30;;;;;;;2.70;0.60;;;;;;;;;;4104620;28;20160;-44
2022/12/08 08:48:32;;;;;;;1.45;0.70;;;;;;;;;;4114157;28;20119;-41
2022/12/08 08:50:33;;;;;;;2.35;0.75;;;;;;;;;;4115533;28;20179;-41
2022/12/08 08:52:35;;;;;;;3.90;0.73;;;;;;;;;;4104407;28;20181;-41
2022/12/08 08:54:36;;;;;;;1.77;1.05;;;;;;;;;;4096924;28;20126;-40
2022/12/08 08:56:38;;;;;;;4.15;0.68;;;;;;;;;;4112441;28;20057;-41
2022/12/08 08:58:40;;;;;;;1.23;0.90;;;;;;;;;;4119527;28;20053;-40
2022/12/08 09:00:41;;;;;;;3.83;0.90;;;;;;;;;;4121714;28;20058;-41
2022/12/08 09:02:43;;;;;;;4.45;0.93;;;;;;;;;;4113206;28;20100;-42
2022/12/08 09:04:44;;;;;;;2.40;0.77;;;;;;;;;;4116667;28;20064;-40
2022/12/08 09:06:46;;;;;;;2.08;0.90;;;;;;;;;;4119868;28;20062;-40
2022/12/08 09:08:49;;;;;;;2.08;0.60;;;;;;;;;;4114186;28;20058;-40
2022/12/08 09:10:50;;;;;;;2.78;0.88;;;;;;;;;;4117122;28;20062;-41
2022/12/08 09:12:51;;;;;;;1.73;0.90;;;;;;;;;;4099843;28;20469;-40
2022/12/08 09:14:53;;;;;;;0.98;0.60;;;;;;;;;;4114833;28;20054;-41
2022/12/08 09:16:54;;;;;;;3.20;1.00;;;;;;;;;;4101940;28;20717;-41
2022/12/08 09:18:55;;;;;;;2.85;1.00;;;;;;;;;;4101671;28;20337;-41
2022/12/08 09:21:04;;;;;;;1.42;0.73;;;;;;;;;;4088735;28;20201;-40
2022/12/08 09:23:05;;;;;;;3.15;0.68;;;;;;;;;;4089961;28;20066;-40
2022/12/08 09:25:07;;;;;;;0.82;0.52;;;;;;;;;;4090882;28;20065;-40
2022/12/08 09:27:08;;;;;;;1.63;0.68;;;;;;;;;;4101759;28;20050;-42
2022/12/08 09:29:10;;;;;;;0.85;0.40;;;;;;;;;;4109841;28;20054;-41
2022/12/08 09:31:15;;;;;;;1.52;0.70;;;;;;;;;;4107168;28;20400;-40
2022/12/08 09:33:17;;;;;;;3.35;0.90;;;;;;;;;;4108684;28;20058;-41
2022/12/08 09:35:18;;;;;;;0.82;0.60;;;;;;;;;;4101026;28;20058;-41
2022/12/08 09:37:21;;;;;;;1.75;0.50;;;;;;;;;;4111301;28;20955;-40
2022/12/08 09:39:23;;;;;;;2.97;0.60;;;;;;;;;;4101882;28;21347;-40
2022/12/08 09:41:28;;;;;;;2.58;0.75;;;;;;;;;;4094679;28;21030;-41
2022/12/08 09:43:52;;;;;;;1.85;0.70;;;;;;;;;;4097319;28;20705;-40
2022/12/08 09:45:54;;;;;;;1.20;0.60;;;;;;;;;;4107322;28;21756;-40
2022/12/08 09:48:06;;;;;;;1.77;0.65;;;;;;;;;;4109801;28;20085;-40
2022/12/08 09:50:19;;;;;;;4.05;1.05;;;;;;;;;;4104872;28;20054;-41
2022/12/08 09:52:24;;;;;;;1.02;0.73;;;;;;;;;;4089455;28;20102;-40
2022/12/08 09:54:34;;;;;;;1.08;0.63;;;;;;;;;;4098581;28;20113;-40
2022/12/08 09:56:35;;;;;;;;;;;;;;;;;;4085359;28;20467;-40
2022/12/08 09:58:56;;;;;;;1.98;0.88;;;;;;;;;;4104002;28;19972;-40
2022/12/08 10:01:01;;;;;;;1.77;0.70;;;;;;;;;;4097395;28;20055;-40
2022/12/08 10:03:10;;;;;;;2.22;1.08;;;;;;;;;;4101576;28;20050;-40
2022/12/08 10:05:14;;;;;;;2.13;0.95;;;;;;;;;;4100461;28;20518;-40
2022/12/08 10:07:20;;;;;;;1.20;0.63;;;;;;;;;;4106910;28;20058;-41
2022/12/08 10:09:37;;;;;;;1.92;0.73;;;;;;;;;;4091900;28;20074;-41
2022/12/08 10:12:02;;;;;;;1.10;0.70;;;;;;;;;;4101402;28;20299;-39
2022/12/08 10:14:44;;;;;;;2.38;0.50;;;;;;;;;;4099227;28;20745;-39
2022/12/08 10:16:49;;;;;;;2.03;0.80;;;;;;;;;;4078776;28;20071;-43
2022/12/08 10:19:01;;;;;;;1.15;0.63;;;;;;;;;;4099231;28;20462;-40
2022/12/08 10:21:17;;;;;;;4.55;0.85;;;;;;;;;;4111129;28;20062;-40
2022/12/08 10:23:30;;;;;;;2.83;0.60;;;;;;;;;;4107708;28;20054;-41
2022/12/08 10:25:57;;;;;;;0.85;0.52;;;;;;;;;;4107874;28;20496;-42
2022/12/08 10:28:01;;;;;;;0.73;0.60;;;;;;;;;;4125189;28;20157;-41
2022/12/08 10:30:11;;;;;;;1.35;0.70;;;;;;;;;;4109225;28;20078;-41
2022/12/08 10:32:22;;;;;;;0.88;0.60;;;;;;;;;;4104306;28;20893;-40
2022/12/08 10:34:23;;;;;;;1.33;0.68;;;;;;;;;;4104013;28;20061;-41
2022/12/08 10:36:57;;;;;;;3.08;0.80;;;;;;;;;;4116689;28;20057;-40
2022/12/08 10:38:59;;;;;;;1.25;0.65;;;;;;;;;;4097816;28;20058;-42
2022/12/08 10:41:00;;;;;;;1.27;0.80;;;;;;;;;;4119325;28;20200;-45
2022/12/08 10:43:04;;;;;;;1.38;0.68;;;;;;;;;;4122935;28;20052;-42
2022/12/08 10:45:08;;;;;;;1.67;0.70;;;;;;;;;;4134517;28;20507;-40
2022/12/08 10:47:13;;;;;;;3.08;0.77;;;;;;;;;;4105173;28;21563;-42
2022/12/08 10:49:25;;;;;;;1.25;0.60;;;;;;;;;;4126673;28;20069;-41
2022/12/08 10:51:32;;;;;;;1.40;0.82;;;;;;;;;;4095949;28;20062;-41
2022/12/08 10:53:44;;;;;;;2.17;0.60;;;;;;;;;;4122275;28;20800;-40
2022/12/08 10:55:46;;;;;;;1.42;0.60;;;;;;;;;;4121966;28;20061;-40
2022/12/08 10:57:48;;;;;;;1.65;0.68;;;;;;;;;;4126978;28;20050;-40
2022/12/08 10:59:49;;;;;;;1.40;0.77;;;;;;;;;;4117172;28;20054;-40
2022/12/08 11:01:53;;;;;;;0.88;0.50;;;;;;;;;;4112206;28;20085;-40
2022/12/08 11:03:58;;;;;;;1.10;0.60;;;;;;;;;;4133906;28;20570;-40
2022/12/08 11:06:00;;;;;;;2.28;0.80;;;;;;;;;;4093952;28;21140;-42
2022/12/08 11:08:03;;;;;;;1.17;0.65;;;;;;;;;;4108277;28;20644;-40
2022/12/08 11:10:05;;;;;;;1.23;0.70;;;;;;;;;;4102297;28;20517;-40
2022/12/08 11:12:15;;;;;;;3.28;1.00;;;;;;;;;;4089757;28;20050;-39
2022/12/08 11:14:32;;;;;;;2.75;0.70;;;;;;;;;;4116374;28;20057;-38
2022/12/08 11:16:34;;;;;;;3.58;1.00;;;;;;;;;;4089366;28;20481;-39
2022/12/08 11:18:41;;;;;;;1.48;0.73;;;;;;;;;;4103534;28;20050;-38
2022/12/08 11:20:43;;;;;;;5.07;1.35;;;;;;;;;;4107068;28;20151;-38
2022/12/08 11:22:49;;;;;;;2.03;0.70;;;;;;;;;;4087387;28;20085;-39
2022/12/08 11:25:06;;;;;;;2.85;0.85;;;;;;;;;;4104682;28;20072;-39
2022/12/08 11:27:07;;;;;;;2.63;0.77;;;;;;;;;;4100911;28;20706;-38
2022/12/08 11:29:11;;;;;;;1.48;0.80;;;;;;;;;;4084418;28;20079;-38
2022/12/08 11:31:28;;;;;;;1.42;0.75;;;;;;;;;;4091935;28;20066;-38
2022/12/08 11:33:29;;;;;;;2.78;0.80;;;;;;;;;;4095936;28;20066;-38
2022/12/08 11:35:39;;;;;;;1.63;0.75;;;;;;;;;;4107730;28;20066;-38
2022/12/08 11:37:42;;;;;;;2.55;1.20;;;;;;;;;;4098278;28;20105;-38
2022/12/08 11:39:48;;;;;;;3.70;1.17;;;;;;;;;;4086972;28;20066;-38
2022/12/08 11:41:52;;;;;;;2.67;0.95;;;;;;;;;;4098724;28;20186;-39
2022/12/08 11:44:12;;;;;;;2.30;1.00;;;;;;;;;;4083196;28;20106;-38
2022/12/08 11:46:39;;;;;;;1.33;0.70;;;;;;;;;;4107786;28;20076;-39
2022/12/08 11:48:52;;;;;;;4.68;0.80;;;;;;;;;;4121169;28;20092;-38
2022/12/08 11:51:06;;;;;;;2.97;1.00;;;;;;;;;;4143324;28;20053;-39
2022/12/08 11:53:21;;;;;;;2.42;0.85;;;;;;;;;;4109414;28;20128;-38
2022/12/08 11:55:36;;;;;;;4.57;0.82;;;;;;;;;;4120689;28;20058;-38
2022/12/08 11:57:38;;;;;;;1.30;0.70;;;;;;;;;;4122596;28;20054;-38
2022/12/08 11:59:43;;;;;;;2.60;0.93;;;;;;;;;;4119204;28;20512;-38
2022/12/08 12:01:44;;;;;;;2.67;1.00;;;;;;;;;;4098766;28;20482;-38
2022/12/08 12:03:56;;;;;;;3.70;0.90;;;;;;;;;;4108818;28;20073;-39
2022/12/08 12:06:27;;;;;;;1.65;0.95;;;;;;;;;;4118054;28;20058;-39
2022/12/08 12:08:47;;;;;;;1.73;0.90;;;;;;;;;;4129659;28;20150;-41
2022/12/08 12:14:01;;;;;;;2.88;0.93;;;;;;;;;;4107583;28;20145;-39
2022/12/08 12:16:15;;;;;;;3.45;1.15;;;;;;;;;;4139768;28;20065;-38
2022/12/08 12:18:34;;;;;;;2.53;0.88;;;;;;;;;;4126336;28;20068;-38
2022/12/08 12:20:41;;;;;;;1.52;0.77;;;;;;;;;;4124267;28;20065;-40
2022/12/08 12:22:48;;;;;;;2.28;0.73;;;;;;;;;;4116686;28;20054;-39
2022/12/08 12:24:50;;;;;;;0.90;0.65;;;;;;;;;;4123722;28;20057;-42
2022/12/08 12:27:17;;;;;;;4.03;1.08;;;;;;;;;;4143317;28;20746;-40
2022/12/08 12:29:20;;;;;;;2.00;1.08;;;;;;;;;;4108660;28;20117;-42
2022/12/08 12:31:28;;;;;;;1.65;0.80;;;;;;;;;;4130879;28;20070;-42
2022/12/08 12:33:30;;;;;;;3.35;0.65;;;;;;;;;;4115724;28;20058;-39
2022/12/08 12:35:37;;;;;;;2.35;0.93;;;;;;;;;;4134458;28;20064;-39
2022/12/08 12:37:41;;;;;;;1.48;0.75;;;;;;;;;;4130491;28;20053;-39
2022/12/08 12:39:51;;;;;;;2.50;1.00;;;;;;;;;;4129473;28;21571;-40